sensor_id;sensor_type;location;lat;lon;timestamp;pressure;altitude;pressure_sealevel;temperature;humidity
11692;BME280;33659;42.672;23.354;2023-08-01T00:00:09;69346.78;;;22.03;61.98
11692;BME280;33659;42.672;23.354;2023-08-01T00:02:37;69339.72;;;21.97;62.51
11692;BME280;33659;42.672;23.354;2023-08-01T00:05:04;69266.78;;;21.95;62.27
11692;BME280;33659;42.672;23.354;2023-08-01T00:07:33;69335.25;;;21.90;62.04
11692;BME280;33659;42.672;23.354;2023-08-01T00:09:59;69259.16;;;21.88;62.53
11692;BME280;33659;42.672;23.354;2023-08-01T00:12:27;69334.78;;;21.92;62.62
11692;BME280;33659;42.672;23.354;2023-08-01T00:14:54;69334.25;;;21.92;62.49
11692;BME280;33659;42.672;23.354;2023-08-01T00:17:20;69327.69;;;21.85;62.37
11692;BME280;33659;42.672;23.354;2023-08-01T00:19:47;69265.16;;;21.94;62.53
11692;BME280;33659;42.672;23.354;2023-08-01T00:22:14;69328.25;;;21.86;62.70
11692;BME280;33659;42.672;23.354;2023-08-01T00:24:42;69334.25;;;21.92;62.18
11692;BME280;33659;42.672;23.354;2023-08-01T00:27:09;69340.16;;;21.95;62.35
11692;BME280;33659;42.672;23.354;2023-08-01T00:29:36;69269.50;;;21.98;62.28
11692;BME280;33659;42.672;23.354;2023-08-01T00:32:03;69349.34;;;22.01;61.94
11692;BME280;33659;42.672;23.354;2023-08-01T00:34:30;69352.63;;;22.04;62.08
11692;BME280;33659;42.672;23.354;2023-08-01T00:36:57;69273.25;;;21.99;61.59
11692;BME280;33659;42.672;23.354;2023-08-01T00:39:23;69351.69;;;22.08;61.92
11692;BME280;33659;42.672;23.354;2023-08-01T00:41:51;69282.06;;;22.09;61.76
11692;BME280;33659;42.672;23.354;2023-08-01T00:44:18;69362.09;;;22.17;61.15
11692;BME280;33659;42.672;23.354;2023-08-01T00:46:45;69301.59;;;22.25;61.00
11692;BME280;33659;42.672;23.354;2023-08-01T00:49:12;69381.09;;;22.33;60.93
11692;BME280;33659;42.672;23.354;2023-08-01T00:51:39;69393.66;;;22.44;60.52
11692;BME280;33659;42.672;23.354;2023-08-01T00:54:07;69329.41;;;22.51;60.56
11692;BME280;33659;42.672;23.354;2023-08-01T00:56:34;69404.09;;;22.57;60.35
11692;BME280;33659;42.672;23.354;2023-08-01T00:59:02;69413.84;;;22.63;59.97
11692;BME280;33659;42.672;23.354;2023-08-01T01:01:29;69420.41;;;22.69;59.69
11692;BME280;33659;42.672;23.354;2023-08-01T01:03:56;69418.84;;;22.70;59.54
11692;BME280;33659;42.672;23.354;2023-08-01T01:06:24;69418.75;;;22.68;59.19
11692;BME280;33659;42.672;23.354;2023-08-01T01:08:53;69417.22;;;22.69;58.94
11692;BME280;33659;42.672;23.354;2023-08-01T01:11:20;69420.94;;;22.70;59.09
11692;BME280;33659;42.672;23.354;2023-08-01T01:13:47;69414.47;;;22.66;58.79
11692;BME280;33659;42.672;23.354;2023-08-01T01:16:15;69411.03;;;22.58;58.85
11692;BME280;33659;42.672;23.354;2023-08-01T01:18:42;69325.56;;;22.48;59.40
11692;BME280;33659;42.672;23.354;2023-08-01T01:21:10;69312.59;;;22.38;59.77
11692;BME280;33659;42.672;23.354;2023-08-01T01:23:37;69395.81;;;22.47;59.68
11692;BME280;33659;42.672;23.354;2023-08-01T01:26:06;69401.94;;;22.55;58.96
11692;BME280;33659;42.672;23.354;2023-08-01T01:28:34;69410.13;;;22.62;58.69
11692;BME280;33659;42.672;23.354;2023-08-01T01:31:02;69418.13;;;22.65;58.45
11692;BME280;33659;42.672;23.354;2023-08-01T01:33:29;69414.47;;;22.66;58.19
11692;BME280;33659;42.672;23.354;2023-08-01T01:35:56;69416.03;;;22.65;58.42
11692;BME280;33659;42.672;23.354;2023-08-01T01:38:24;69345.22;;;22.66;58.17
11692;BME280;33659;42.672;23.354;2023-08-01T01:40:50;69399.19;;;22.52;58.14
11692;BME280;33659;42.672;23.354;2023-08-01T01:43:17;69388.19;;;22.39;58.41
11692;BME280;33659;42.672;23.354;2023-08-01T01:45:44;69383.91;;;22.38;58.40
11692;BME280;33659;42.672;23.354;2023-08-01T01:48:11;69318.59;;;22.43;58.36
11692;BME280;33659;42.672;23.354;2023-08-01T01:50:37;69393.09;;;22.44;58.42
11692;BME280;33659;42.672;23.354;2023-08-01T01:53:04;69395.94;;;22.49;58.34
11692;BME280;33659;42.672;23.354;2023-08-01T01:55:32;69397.47;;;22.48;58.78
11692;BME280;33659;42.672;23.354;2023-08-01T01:57:59;69399.66;;;22.50;58.45
11692;BME280;33659;42.672;23.354;2023-08-01T02:00:26;69394.84;;;22.48;58.30
11692;BME280;33659;42.672;23.354;2023-08-01T02:02:53;69392.09;;;22.46;57.93
11692;BME280;33659;42.672;23.354;2023-08-01T02:05:20;69383.28;;;22.35;58.05
11692;BME280;33659;42.672;23.354;2023-08-01T02:07:47;69377.28;;;22.29;58.24
11692;BME280;33659;42.672;23.354;2023-08-01T02:10:14;69376.19;;;22.28;58.29
11692;BME280;33659;42.672;23.354;2023-08-01T02:12:42;69374.09;;;22.29;58.06
11692;BME280;33659;42.672;23.354;2023-08-01T02:15:09;69377.28;;;22.29;58.18
11692;BME280;33659;42.672;23.354;2023-08-01T02:17:35;69318.50;;;22.41;57.89
11692;BME280;33659;42.672;23.354;2023-08-01T02:20:02;69323.41;;;22.46;57.89
11692;BME280;33659;42.672;23.354;2023-08-01T02:22:30;69393.19;;;22.47;58.29
11692;BME280;33659;42.672;23.354;2023-08-01T02:24:56;69333.22;;;22.55;58.82
11692;BME280;33659;42.672;23.354;2023-08-01T02:27:23;69415.94;;;22.63;59.18
11692;BME280;33659;42.672;23.354;2023-08-01T02:29:51;69413.38;;;22.65;59.17
11692;BME280;33659;42.672;23.354;2023-08-01T02:32:18;69420.41;;;22.69;58.63
11692;BME280;33659;42.672;23.354;2023-08-01T02:34:45;69422.66;;;22.74;58.10
11692;BME280;33659;42.672;23.354;2023-08-01T02:37:12;69419.38;;;22.71;57.56
11692;BME280;33659;42.672;23.354;2023-08-01T02:39:39;69415.47;;;22.65;56.78
11692;BME280;33659;42.672;23.354;2023-08-01T02:42:06;69326.13;;;22.48;56.85
11692;BME280;33659;42.672;23.354;2023-08-01T02:44:33;69381.09;;;22.33;57.03
11692;BME280;33659;42.672;23.354;2023-08-01T02:47:01;69299.50;;;22.26;57.58
11692;BME280;33659;42.672;23.354;2023-08-01T02:49:28;69365.34;;;22.21;57.39
11692;BME280;33659;42.672;23.354;2023-08-01T02:51:55;69297.78;;;22.22;57.55
11692;BME280;33659;42.672;23.354;2023-08-01T02:54:22;69377.84;;;22.30;57.73
11692;BME280;33659;42.672;23.354;2023-08-01T02:56:48;69378.44;;;22.33;58.08
11692;BME280;33659;42.672;23.354;2023-08-01T02:59:15;69390.38;;;22.41;58.19
11692;BME280;33659;42.672;23.354;2023-08-01T03:01:43;69327.13;;;22.47;57.84
11692;BME280;33659;42.672;23.354;2023-08-01T03:04:11;69406.09;;;22.54;57.63
11692;BME280;33659;42.672;23.354;2023-08-01T03:06:38;69323.09;;;22.53;57.44
11692;BME280;33659;42.672;23.354;2023-08-01T03:09:05;69404.66;;;22.57;57.28
11692;BME280;33659;42.672;23.354;2023-08-01T03:11:33;69408.94;;;22.59;57.74
11692;BME280;33659;42.672;23.354;2023-08-01T03:14:01;69416.56;;;22.66;58.71
11692;BME280;33659;42.672;23.354;2023-08-01T03:16:30;69345.75;;;22.66;58.90
11692;BME280;33659;42.672;23.354;2023-08-01T03:18:56;69420.94;;;22.70;58.97
11692;BME280;33659;42.672;23.354;2023-08-01T03:21:27;69351.22;;;22.71;57.73
11692;BME280;33659;42.672;23.354;2023-08-01T03:23:53;69343.03;;;22.64;57.16
11692;BME280;33659;42.672;23.354;2023-08-01T03:26:20;69406.09;;;22.54;56.19
11692;BME280;33659;42.672;23.354;2023-08-01T03:28:47;69325.03;;;22.47;56.44
11692;BME280;33659;42.672;23.354;2023-08-01T03:31:14;69315.84;;;22.41;56.44
11692;BME280;33659;42.672;23.354;2023-08-01T03:33:40;69379.00;;;22.33;57.04
11692;BME280;33659;42.672;23.354;2023-08-01T03:36:07;69307.13;;;22.33;58.64
11692;BME280;33659;42.672;23.354;2023-08-01T03:38:35;69374.09;;;22.29;60.30
11692;BME280;33659;42.672;23.354;2023-08-01T03:41:02;69369.19;;;22.24;61.20
11692;BME280;33659;42.672;23.354;2023-08-01T03:43:30;69278.06;;;22.15;61.04
11692;BME280;33659;42.672;23.354;2023-08-01T03:45:56;69284.25;;;22.11;61.28
11692;BME280;33659;42.672;23.354;2023-08-01T03:48:23;69269.59;;;22.00;61.92
11692;BME280;33659;42.672;23.354;2023-08-01T03:50:50;69340.69;;;21.95;62.02
11692;BME280;33659;42.672;23.354;2023-08-01T03:53:17;69346.78;;;22.03;61.65
11692;BME280;33659;42.672;23.354;2023-08-01T03:55:46;69281.97;;;22.07;61.53
11692;BME280;33659;42.672;23.354;2023-08-01T03:58:14;69352.25;;;22.08;61.09
11692;BME280;33659;42.672;23.354;2023-08-01T04:00:40;69347.78;;;22.02;61.43
11692;BME280;33659;42.672;23.354;2023-08-01T04:03:07;69347.88;;;22.04;61.12
11692;BME280;33659;42.672;23.354;2023-08-01T04:05:34;69281.50;;;22.09;60.64
11692;BME280;33659;42.672;23.354;2023-08-01T04:08:01;69358.81;;;22.14;60.58
11692;BME280;33659;42.672;23.354;2023-08-01T04:10:28;69362.00;;;22.15;60.57
11692;BME280;33659;42.672;23.354;2023-08-01T04:12:56;69363.19;;;22.19;60.44
11692;BME280;33659;42.672;23.354;2023-08-01T04:15:23;69372.44;;;22.27;59.80
11692;BME280;33659;42.672;23.354;2023-08-01T04:17:49;69305.44;;;22.29;60.06
11692;BME280;33659;42.672;23.354;2023-08-01T04:20:16;69386.56;;;22.38;59.57
11692;BME280;33659;42.672;23.354;2023-08-01T04:22:43;69389.38;;;22.43;59.22
11692;BME280;33659;42.672;23.354;2023-08-01T04:25:09;69393.19;;;22.47;59.50
11692;BME280;33659;42.672;23.354;2023-08-01T04:27:36;69403.56;;;22.56;58.72
11692;BME280;33659;42.672;23.354;2023-08-01T04:30:06;69337.56;;;22.59;58.45
11692;BME280;33659;42.672;23.354;2023-08-01T04:32:32;69418.75;;;22.68;58.71
11692;BME280;33659;42.672;23.354;2023-08-01T04:34:59;69422.03;;;22.71;58.42
11692;BME280;33659;42.672;23.354;2023-08-01T04:37:26;69426.00;;;22.80;58.06
11692;BME280;33659;42.672;23.354;2023-08-01T04:39:52;69368.16;;;22.87;57.46
11692;BME280;33659;42.672;23.354;2023-08-01T04:42:19;69442.25;;;22.90;57.85
11692;BME280;33659;42.672;23.354;2023-08-01T04:44:46;69453.25;;;23.03;57.60
11692;BME280;33659;42.672;23.354;2023-08-01T04:47:14;69460.28;;;23.07;56.93
11692;BME280;33659;42.672;23.354;2023-08-01T04:49:41;69464.09;;;23.10;57.20
11692;BME280;33659;42.672;23.354;2023-08-01T04:52:07;69468.47;;;23.14;56.90
11692;BME280;33659;42.672;23.354;2023-08-01T04:54:34;69471.72;;;23.17;56.59
11692;BME280;33659;42.672;23.354;2023-08-01T04:57:01;69402.03;;;23.21;56.40
11692;BME280;33659;42.672;23.354;2023-08-01T04:59:27;69478.38;;;23.26;56.47
11692;BME280;33659;42.672;23.354;2023-08-01T05:01:54;69416.69;;;23.33;56.11
11692;BME280;33659;42.672;23.354;2023-08-01T05:04:24;69499.56;;;23.43;55.59
11692;BME280;33659;42.672;23.354;2023-08-01T05:06:51;69430.38;;;23.48;55.73
11692;BME280;33659;42.672;23.354;2023-08-01T05:09:18;69431.94;;;23.47;55.83
11692;BME280;33659;42.672;23.354;2023-08-01T05:11:45;69504.56;;;23.50;54.90
11692;BME280;33659;42.672;23.354;2023-08-01T05:14:11;69503.47;;;23.49;54.44
11692;BME280;33659;42.672;23.354;2023-08-01T05:16:38;69508.41;;;23.54;54.45
11692;BME280;33659;42.672;23.354;2023-08-01T05:19:05;69440.22;;;23.57;54.49
11692;BME280;33659;42.672;23.354;2023-08-01T05:21:33;69438.50;;;23.53;54.45
11692;BME280;33659;42.672;23.354;2023-08-01T05:23:59;69515.50;;;23.61;53.71
11692;BME280;33659;42.672;23.354;2023-08-01T05:26:26;69459.31;;;23.75;53.55
11692;BME280;33659;42.672;23.354;2023-08-01T05:28:53;69468.53;;;23.81;53.15
11692;BME280;33659;42.672;23.354;2023-08-01T05:31:20;69543.38;;;23.87;53.41
11692;BME280;33659;42.672;23.354;2023-08-01T05:33:46;69541.66;;;23.83;53.18
11692;BME280;33659;42.672;23.354;2023-08-01T05:36:13;69551.50;;;23.92;53.16
11692;BME280;33659;42.672;23.354;2023-08-01T05:38:41;69474.31;;;23.96;53.16
11692;BME280;33659;42.672;23.354;2023-08-01T05:41:08;69481.16;;;23.95;53.18
11692;BME280;33659;42.672;23.354;2023-08-01T05:43:35;69558.03;;;23.98;53.01
11692;BME280;33659;42.672;23.354;2023-08-01T05:46:01;69556.97;;;23.97;53.25
11692;BME280;33659;42.672;23.354;2023-08-01T05:48:28;69549.47;;;23.95;53.40
11692;BME280;33659;42.672;23.354;2023-08-01T05:50:55;69487.06;;;23.98;53.33
11692;BME280;33659;42.672;23.354;2023-08-01T05:53:23;69568.97;;;24.08;52.95
11692;BME280;33659;42.672;23.354;2023-08-01T05:55:51;69500.19;;;24.11;52.84
11692;BME280;33659;42.672;23.354;2023-08-01T05:58:18;69507.28;;;24.17;52.59
11692;BME280;33659;42.672;23.354;2023-08-01T06:00:45;69496.97;;;24.10;51.85
11692;BME280;33659;42.672;23.354;2023-08-01T06:03:12;69567.88;;;24.07;52.12
11692;BME280;33659;42.672;23.354;2023-08-01T06:05:39;69565.69;;;24.05;52.32
11692;BME280;33659;42.672;23.354;2023-08-01T06:08:06;69566.78;;;24.06;51.99
11692;BME280;33659;42.672;23.354;2023-08-01T06:10:34;69565.22;;;24.07;51.60
11692;BME280;33659;42.672;23.354;2023-08-01T06:13:02;69489.88;;;24.03;51.06
11692;BME280;33659;42.672;23.354;2023-08-01T06:15:29;69554.31;;;23.97;51.36
11692;BME280;33659;42.672;23.354;2023-08-01T06:17:56;69555.94;;;23.98;50.57
11692;BME280;33659;42.672;23.354;2023-08-01T06:20:23;69494.72;;;24.05;50.70
11692;BME280;33659;42.672;23.354;2023-08-01T06:22:49;69496.44;;;24.10;50.27
11692;BME280;33659;42.672;23.354;2023-08-01T06:25:16;69500.25;;;24.13;50.23
11692;BME280;33659;42.672;23.354;2023-08-01T06:27:43;69516.53;;;24.26;50.60
11692;BME280;33659;42.672;23.354;2023-08-01T06:30:12;69518.72;;;24.28;50.72
11692;BME280;33659;42.672;23.354;2023-08-01T06:32:38;69527.94;;;24.34;50.62
11692;BME280;33659;42.672;23.354;2023-08-01T06:35:06;69597.47;;;24.37;50.67
11692;BME280;33659;42.672;23.354;2023-08-01T06:37:33;69524.28;;;24.36;50.75
11692;BME280;33659;42.672;23.354;2023-08-01T06:40:01;69517.63;;;24.27;51.63
11692;BME280;33659;42.672;23.354;2023-08-01T06:42:28;69520.97;;;24.32;52.21
11692;BME280;33659;42.672;23.354;2023-08-01T06:44:55;69588.63;;;24.26;52.22
11692;BME280;33659;42.672;23.354;2023-08-01T06:47:23;69589.16;;;24.27;52.12
11692;BME280;33659;42.672;23.354;2023-08-01T06:49:49;69591.44;;;24.31;51.77
11692;BME280;33659;42.672;23.354;2023-08-01T06:52:16;69524.19;;;24.33;51.77
11692;BME280;33659;42.672;23.354;2023-08-01T06:54:43;69593.00;;;24.30;51.71
11692;BME280;33659;42.672;23.354;2023-08-01T06:57:10;69594.09;;;24.31;51.49
11692;BME280;33659;42.672;23.354;2023-08-01T06:59:37;69530.22;;;24.39;51.17
11692;BME280;33659;42.672;23.354;2023-08-01T07:02:04;69528.75;;;24.42;51.27
11692;BME280;33659;42.672;23.354;2023-08-01T07:04:32;69543.25;;;24.48;50.97
11692;BME280;33659;42.672;23.354;2023-08-01T07:06:59;69542.22;;;24.50;50.46
11692;BME280;33659;42.672;23.354;2023-08-01T07:09:26;69545.50;;;24.53;50.66
11692;BME280;33659;42.672;23.354;2023-08-01T07:11:53;69553.22;;;24.63;50.34
11692;BME280;33659;42.672;23.354;2023-08-01T07:14:20;69561.94;;;24.71;50.43
11692;BME280;33659;42.672;23.354;2023-08-01T07:16:46;69637.38;;;24.74;50.54
11692;BME280;33659;42.672;23.354;2023-08-01T07:19:13;69568.88;;;24.72;50.60
11692;BME280;33659;42.672;23.354;2023-08-01T07:21:41;69568.88;;;24.72;50.58
11692;BME280;33659;42.672;23.354;2023-08-01T07:24:09;69635.66;;;24.70;50.43
11692;BME280;33659;42.672;23.354;2023-08-01T07:26:36;69560.84;;;24.70;50.45
11692;BME280;33659;42.672;23.354;2023-08-01T07:29:03;69558.69;;;24.68;50.50
11692;BME280;33659;42.672;23.354;2023-08-01T07:31:29;69563.50;;;24.70;50.92
11692;BME280;33659;42.672;23.354;2023-08-01T07:33:56;69641.59;;;24.73;50.61
11692;BME280;33659;42.672;23.354;2023-08-01T07:36:23;69564.06;;;24.70;50.78
11692;BME280;33659;42.672;23.354;2023-08-01T07:38:51;69635.66;;;24.70;50.35
11692;BME280;33659;42.672;23.354;2023-08-01T07:41:19;69570.59;;;24.76;50.44
11692;BME280;33659;42.672;23.354;2023-08-01T07:43:46;69565.22;;;24.74;50.73
11692;BME280;33659;42.672;23.354;2023-08-01T07:46:14;69638.38;;;24.73;50.66
11692;BME280;33659;42.672;23.354;2023-08-01T07:48:40;69557.28;;;24.74;50.54
11692;BME280;33659;42.672;23.354;2023-08-01T07:51:07;69581.06;;;24.89;49.88
11692;BME280;33659;42.672;23.354;2023-08-01T07:53:35;69579.66;;;24.95;49.63
11692;BME280;33659;42.672;23.354;2023-08-01T07:56:04;69592.44;;;24.97;49.44
11692;BME280;33659;42.672;23.354;2023-08-01T07:58:32;69599.00;;;25.03;49.64
11692;BME280;33659;42.672;23.354;2023-08-01T08:01:02;69608.78;;;25.09;49.44
11692;BME280;33659;42.672;23.354;2023-08-01T08:03:29;69610.94;;;25.11;49.50
11692;BME280;33659;42.672;23.354;2023-08-01T08:05:56;69685.34;;;25.14;49.34
11692;BME280;33659;42.672;23.354;2023-08-01T08:08:23;69616.50;;;25.19;49.06
11692;BME280;33659;42.672;23.354;2023-08-01T08:10:50;69619.84;;;25.25;48.64
11692;BME280;33659;42.672;23.354;2023-08-01T08:13:18;69629.03;;;25.31;48.44
11692;BME280;33659;42.672;23.354;2023-08-01T08:15:46;69623.13;;;25.28;49.05
11692;BME280;33659;42.672;23.354;2023-08-01T08:18:12;69615.00;;;25.23;49.12
11692;BME280;33659;42.672;23.354;2023-08-01T08:20:43;69695.31;;;25.28;49.28
11692;BME280;33659;42.672;23.354;2023-08-01T08:23:11;69618.34;;;25.28;48.22
11692;BME280;33659;42.672;23.354;2023-08-01T08:25:39;69686.03;;;25.20;48.97
11692;BME280;33659;42.672;23.354;2023-08-01T08:28:06;69691.91;;;25.20;49.85
11692;BME280;33659;42.672;23.354;2023-08-01T08:30:35;69622.41;;;25.22;48.77
11692;BME280;33659;42.672;23.354;2023-08-01T08:33:03;69624.84;;;25.32;48.33
11692;BME280;33659;42.672;23.354;2023-08-01T08:35:32;69635.16;;;25.39;48.48
11692;BME280;33659;42.672;23.354;2023-08-01T08:38:01;69648.63;;;25.47;48.10
11692;BME280;33659;42.672;23.354;2023-08-01T08:40:28;69641.06;;;25.42;48.22
11692;BME280;33659;42.672;23.354;2023-08-01T08:42:57;69642.25;;;25.46;48.78
11692;BME280;33659;42.672;23.354;2023-08-01T08:45:25;69644.34;;;25.45;48.96
11692;BME280;33659;42.672;23.354;2023-08-01T08:47:55;69653.78;;;25.59;48.51
11692;BME280;33659;42.672;23.354;2023-08-01T08:50:22;69735.09;;;25.60;47.22
11692;BME280;33659;42.672;23.354;2023-08-01T08:52:50;69639.44;;;25.41;47.26
11692;BME280;33659;42.672;23.354;2023-08-01T08:55:18;69690.88;;;25.22;47.96
11692;BME280;33659;42.672;23.354;2023-08-01T08:57:48;69600.56;;;25.19;48.48
11692;BME280;33659;42.672;23.354;2023-08-01T09:00:17;69617.59;;;25.20;47.80
11692;BME280;33659;42.672;23.354;2023-08-01T09:02:44;69618.69;;;25.21;48.37
11692;BME280;33659;42.672;23.354;2023-08-01T09:05:12;69629.59;;;25.31;48.26
11692;BME280;33659;42.672;23.354;2023-08-01T09:07:42;69642.69;;;25.44;47.74
11692;BME280;33659;42.672;23.354;2023-08-01T09:10:09;69644.66;;;25.55;48.11
11692;BME280;33659;42.672;23.354;2023-08-01T09:12:36;69665.66;;;25.65;47.60
11692;BME280;33659;42.672;23.354;2023-08-01T09:15:04;69677.69;;;25.76;46.99
11692;BME280;33659;42.672;23.354;2023-08-01T09:17:30;69671.44;;;25.80;46.21
11692;BME280;33659;42.672;23.354;2023-08-01T09:20:03;69752.13;;;25.79;47.08
11692;BME280;33659;42.672;23.354;2023-08-01T09:22:42;69674.25;;;25.85;46.61
11692;BME280;33659;42.672;23.354;2023-08-01T09:25:10;69680.25;;;25.91;46.38
11692;BME280;33659;42.672;23.354;2023-08-01T09:27:37;69699.00;;;25.96;46.09
11692;BME280;33659;42.672;23.354;2023-08-01T09:30:09;69703.91;;;26.01;46.68
11692;BME280;33659;42.672;23.354;2023-08-01T09:32:37;69696.63;;;26.06;45.99
11692;BME280;33659;42.672;23.354;2023-08-01T09:35:04;69709.91;;;26.06;46.17
11692;BME280;33659;42.672;23.354;2023-08-01T09:37:42;69693.91;;;26.04;46.07
11692;BME280;33659;42.672;23.354;2023-08-01T09:40:09;69691.16;;;26.01;46.06
11692;BME280;33659;42.672;23.354;2023-08-01T09:42:40;69776.19;;;26.01;45.60
11692;BME280;33659;42.672;23.354;2023-08-01T09:45:12;69713.75;;;26.10;45.81
11692;BME280;33659;42.672;23.354;2023-08-01T09:47:40;69720.31;;;26.16;45.37
11692;BME280;33659;42.672;23.354;2023-08-01T09:50:09;69725.22;;;26.20;45.41
11692;BME280;33659;42.672;23.354;2023-08-01T09:52:36;69724.06;;;26.17;45.13
11692;BME280;33659;42.672;23.354;2023-08-01T09:55:05;69725.22;;;26.20;45.52
11692;BME280;33659;42.672;23.354;2023-08-01T09:57:34;69733.97;;;26.29;45.04
11692;BME280;33659;42.672;23.354;2023-08-01T10:00:04;69735.59;;;26.30;45.68
11692;BME280;33659;42.672;23.354;2023-08-01T10:02:32;69812.78;;;26.33;45.62
11692;BME280;33659;42.672;23.354;2023-08-01T10:05:00;69737.16;;;26.29;45.34
11692;BME280;33659;42.672;23.354;2023-08-01T10:07:29;69748.91;;;26.48;44.56
11692;BME280;33659;42.672;23.354;2023-08-01T10:09:58;69742.47;;;26.46;44.82
11692;BME280;33659;42.672;23.354;2023-08-01T10:12:27;69817.69;;;26.37;45.13
11692;BME280;33659;42.672;23.354;2023-08-01T10:14:54;69736.47;;;26.41;45.53
11692;BME280;33659;42.672;23.354;2023-08-01T10:17:24;69761.88;;;26.55;45.21
11692;BME280;33659;42.672;23.354;2023-08-01T10:19:53;69769.50;;;26.62;45.18
11692;BME280;33659;42.672;23.354;2023-08-01T10:22:23;69772.44;;;26.72;44.15
11692;BME280;33659;42.672;23.354;2023-08-01T10:24:51;69857.19;;;26.77;45.52
11692;BME280;33659;42.672;23.354;2023-08-01T10:27:19;69781.41;;;26.88;45.24
11692;BME280;33659;42.672;23.354;2023-08-01T10:29:57;69789.56;;;26.93;44.60
11692;BME280;33659;42.672;23.354;2023-08-01T10:32:29;69883.41;;;26.98;44.43
11692;BME280;33659;42.672;23.354;2023-08-01T10:34:57;69801.13;;;27.06;44.06
11692;BME280;33659;42.672;23.354;2023-08-01T10:37:24;69823.56;;;27.10;43.17
11692;BME280;33659;42.672;23.354;2023-08-01T10:39:56;69815.19;;;27.14;43.75
11692;BME280;33659;42.672;23.354;2023-08-01T10:42:23;69825.19;;;27.11;43.88
11692;BME280;33659;42.672;23.354;2023-08-01T10:44:50;69831.31;;;27.19;43.67
11692;BME280;33659;42.672;23.354;2023-08-01T10:47:26;69824.13;;;27.30;43.44
11692;BME280;33659;42.672;23.354;2023-08-01T10:49:53;69855.91;;;27.42;42.52
11692;BME280;33659;42.672;23.354;2023-08-01T10:52:22;69864.03;;;27.47;42.99
11692;BME280;33659;42.672;23.354;2023-08-01T10:54:56;69871.78;;;27.57;42.16
11692;BME280;33659;42.672;23.354;2023-08-01T10:57:24;69865.00;;;27.63;41.86
11692;BME280;33659;42.672;23.354;2023-08-01T10:59:51;69885.13;;;27.77;42.14
11692;BME280;33659;42.672;23.354;2023-08-01T11:02:22;69889.72;;;27.89;41.22
11692;BME280;33659;42.672;23.354;2023-08-01T11:04:58;69901.19;;;27.99;41.43
11692;BME280;33659;42.672;23.354;2023-08-01T11:07:25;69917.66;;;27.97;41.60
11692;BME280;33659;42.672;23.354;2023-08-01T11:10:03;69912.81;;;27.95;41.08
11692;BME280;33659;42.672;23.354;2023-08-01T11:12:30;69989.09;;;27.97;40.76
11692;BME280;33659;42.672;23.354;2023-08-01T11:14:59;69904.94;;;28.00;41.09
11692;BME280;33659;42.672;23.354;2023-08-01T11:17:26;69931.88;;;28.11;40.14
11692;BME280;33659;42.672;23.354;2023-08-01T11:20:02;69937.97;;;28.19;40.08
11692;BME280;33659;42.672;23.354;2023-08-01T11:22:30;69942.25;;;28.20;39.29
11692;BME280;33659;42.672;23.354;2023-08-01T11:24:56;69922.50;;;28.19;39.85
11692;BME280;33659;42.672;23.354;2023-08-01T11:27:24;69940.72;;;28.21;39.91
11692;BME280;33659;42.672;23.354;2023-08-01T11:29:50;69958.22;;;28.38;38.33
11692;BME280;33659;42.672;23.354;2023-08-01T11:32:18;69962.69;;;28.44;38.85
11692;BME280;33659;42.672;23.354;2023-08-01T11:34:46;69953.72;;;28.48;38.63
11692;BME280;33659;42.672;23.354;2023-08-01T11:37:17;70055.38;;;28.58;38.65
11692;BME280;33659;42.672;23.354;2023-08-01T11:39:45;69988.66;;;28.78;37.63
11692;BME280;33659;42.672;23.354;2023-08-01T11:42:15;70008.81;;;28.92;38.07
11692;BME280;33659;42.672;23.354;2023-08-01T11:44:42;70015.03;;;29.05;37.48
11692;BME280;33659;42.672;23.354;2023-08-01T11:47:11;70026.44;;;29.13;36.28
11692;BME280;33659;42.672;23.354;2023-08-01T11:49:39;70034.66;;;29.21;36.59
11692;BME280;33659;42.672;23.354;2023-08-01T11:52:06;70047.72;;;29.31;36.45
11692;BME280;33659;42.672;23.354;2023-08-01T11:54:44;70046.94;;;29.42;35.49
11692;BME280;33659;42.672;23.354;2023-08-01T11:57:11;70065.44;;;29.35;35.32
11692;BME280;33659;42.672;23.354;2023-08-01T11:59:46;70053.06;;;29.31;34.94
11692;BME280;33659;42.672;23.354;2023-08-01T12:02:21;70052.09;;;29.35;35.47
11692;BME280;33659;42.672;23.354;2023-08-01T12:04:48;70053.81;;;29.39;35.40
11692;BME280;33659;42.672;23.354;2023-08-01T12:07:15;70083.13;;;29.56;35.78
11692;BME280;33659;42.672;23.354;2023-08-01T12:09:42;70082.34;;;29.68;36.17
11692;BME280;33659;42.672;23.354;2023-08-01T12:12:11;70116.88;;;29.80;36.33
11692;BME280;33659;42.672;23.354;2023-08-01T12:14:40;70129.59;;;29.97;36.07
11692;BME280;33659;42.672;23.354;2023-08-01T12:17:07;70134.25;;;30.11;36.10
11692;BME280;33659;42.672;23.354;2023-08-01T12:19:34;70139.88;;;30.22;35.72
11692;BME280;33659;42.672;23.354;2023-08-01T12:22:01;70148.38;;;30.19;35.42
11692;BME280;33659;42.672;23.354;2023-08-01T12:24:28;70159.06;;;30.19;35.49
11692;BME280;33659;42.672;23.354;2023-08-01T12:26:54;70144.72;;;30.24;35.62
11692;BME280;33659;42.672;23.354;2023-08-01T12:29:22;70151.72;;;30.25;35.05
11692;BME280;33659;42.672;23.354;2023-08-01T12:31:49;70168.44;;;30.31;34.57
11692;BME280;33659;42.672;23.354;2023-08-01T12:34:16;70177.19;;;30.39;33.32
11692;BME280;33659;42.672;23.354;2023-08-01T12:36:43;70182.09;;;30.41;33.64
11692;BME280;33659;42.672;23.354;2023-08-01T12:39:09;70166.69;;;30.46;33.82
11692;BME280;33659;42.672;23.354;2023-08-01T12:41:37;70174.97;;;30.57;33.67
11692;BME280;33659;42.672;23.354;2023-08-01T12:44:04;70204.78;;;30.72;33.72
11692;BME280;33659;42.672;23.354;2023-08-01T12:46:32;70220.69;;;30.87;33.90
11692;BME280;33659;42.672;23.354;2023-08-01T12:48:59;70224.66;;;30.95;34.20
11692;BME280;33659;42.672;23.354;2023-08-01T12:51:26;70237.13;;;31.02;34.12